createdAt,value
2022-09-09T00:01:04.509Z,1.47
2022-09-09T00:03:54.995Z,1.60
2022-09-09T00:06:26.658Z,1.63
2022-09-09T00:09:09.554Z,1.37
2022-09-09T00:11:49.701Z,1.30
2022-09-09T00:14:25.784Z,1.00
2022-09-09T00:16:57.260Z,1.10
2022-09-09T00:19:38.017Z,1.30
2022-09-09T00:22:19.804Z,1.20
2022-09-09T00:24:50.492Z,1.00
2022-09-09T00:27:33.364Z,0.70
2022-09-09T00:30:15.387Z,1.00
2022-09-09T00:32:41.993Z,0.80
2022-09-09T00:35:11.592Z,1.10
2022-09-09T00:37:39.706Z,0.90
2022-09-09T00:40:20.016Z,0.93
2022-09-09T00:42:47.236Z,1.17
2022-09-09T00:45:42.696Z,1.10
2022-09-09T00:48:12.856Z,0.90
2022-09-09T00:51:02.190Z,1.00
2022-09-09T00:53:38.498Z,1.43
2022-09-09T00:56:18.087Z,0.90
2022-09-09T00:59:01.075Z,1.03
2022-09-09T01:01:27.728Z,1.37
2022-09-09T01:03:55.784Z,1.70
2022-09-09T01:06:22.396Z,1.30
2022-09-09T01:09:00.792Z,1.20
2022-09-09T01:11:33.535Z,1.33
2022-09-09T01:14:13.213Z,1.40
2022-09-09T01:16:40.089Z,1.20
2022-09-09T01:19:08.529Z,1.50
2022-09-09T01:22:00.764Z,1.27
2022-09-09T01:24:42.343Z,1.63
2022-09-09T01:27:09.847Z,1.57
2022-09-09T01:29:37.108Z,1.20
2022-09-09T01:32:41.627Z,1.50
2022-09-09T01:35:21.623Z,1.57
2022-09-09T01:37:48.274Z,1.70
2022-09-09T01:40:14.951Z,1.60
2022-09-09T01:42:41.551Z,1.57
2022-09-09T01:45:08.673Z,1.23
2022-09-09T01:47:35.860Z,1.20
2022-09-09T01:50:04.058Z,1.47
2022-09-09T01:52:31.892Z,1.30
2022-09-09T01:54:58.515Z,1.37
2022-09-09T01:57:50.857Z,1.30
2022-09-09T02:00:17.786Z,1.20
2022-09-09T02:03:02.959Z,1.67
2022-09-09T02:05:56.290Z,1.50
2022-09-09T02:08:27.844Z,1.53
2022-09-09T02:11:08.409Z,1.40
2022-09-09T02:13:38.260Z,1.10
2022-09-09T02:16:18.084Z,1.50
2022-09-09T02:18:55.995Z,1.37
2022-09-09T02:21:23.678Z,1.50
2022-09-09T02:23:53.137Z,1.43
2022-09-09T02:26:22.638Z,1.23
2022-09-09T02:28:51.222Z,1.50
2022-09-09T02:31:20.358Z,1.47
2022-09-09T02:33:53.224Z,1.43
2022-09-09T02:36:21.154Z,1.27
2022-09-09T02:38:54.134Z,1.23
2022-09-09T02:41:22.881Z,1.50
2022-09-09T02:43:49.566Z,1.00
2022-09-09T02:46:29.162Z,1.30
2022-09-09T02:48:58.674Z,1.40
2022-09-09T02:51:37.270Z,1.17
2022-09-09T02:54:32.009Z,1.40
2022-09-09T02:57:12.208Z,1.20
2022-09-09T02:59:40.060Z,1.40
2022-09-09T03:02:07.102Z,1.03
2022-09-09T03:04:33.759Z,1.00
2022-09-09T03:07:00.544Z,1.40
2022-09-09T03:09:27.476Z,1.17
2022-09-09T03:11:56.036Z,1.20
2022-09-09T03:14:25.655Z,1.20
2022-09-09T03:16:53.315Z,1.23
2022-09-09T03:19:20.608Z,1.33
2022-09-09T03:21:47.985Z,1.43
2022-09-09T03:24:15.218Z,1.30
2022-09-09T03:26:45.733Z,1.37
2022-09-09T03:29:13.461Z,1.00
2022-09-09T03:31:40.727Z,1.50
2022-09-09T03:34:07.723Z,1.47
2022-09-09T03:36:34.668Z,1.77
2022-09-09T03:39:02.030Z,1.63
2022-09-09T03:41:29.130Z,1.60
2022-09-09T03:43:56.037Z,1.57
2022-09-09T03:46:24.906Z,1.23
2022-09-09T03:48:53.232Z,1.60
2022-09-09T03:51:20.088Z,1.57
2022-09-09T03:53:47.538Z,1.50
2022-09-09T03:56:14.456Z,1.80
2022-09-09T03:58:41.145Z,1.57
2022-09-09T04:01:11.428Z,1.60
2022-09-09T04:03:38.102Z,2.00
2022-09-09T04:06:06.040Z,1.83
2022-09-09T04:08:32.838Z,1.67
2022-09-09T04:11:00.047Z,1.60
2022-09-09T04:13:27.194Z,1.53
2022-09-09T04:15:56.001Z,1.60
2022-09-09T04:18:23.120Z,1.87
2022-09-09T04:20:51.239Z,1.60
2022-09-09T04:23:20.176Z,1.50
2022-09-09T04:25:47.958Z,1.57
2022-09-09T04:28:18.503Z,1.47
2022-09-09T04:30:46.117Z,1.90
2022-09-09T04:33:13.482Z,1.90
2022-09-09T04:35:40.815Z,1.43
2022-09-09T04:38:10.644Z,1.70
2022-09-09T04:40:37.325Z,1.70
2022-09-09T04:43:05.887Z,1.63
2022-09-09T04:45:32.748Z,1.60
2022-09-09T04:47:59.359Z,1.60
2022-09-09T04:50:26.676Z,1.63
2022-09-09T04:52:53.248Z,1.60
2022-09-09T04:55:19.811Z,1.73
2022-09-09T04:57:46.475Z,1.80
2022-09-09T05:00:14.265Z,2.43
2022-09-09T05:02:41.211Z,1.90
2022-09-09T05:05:07.917Z,1.80
2022-09-09T05:07:34.514Z,1.70
2022-09-09T05:10:01.106Z,2.00
2022-09-09T05:12:27.853Z,2.20
2022-09-09T05:14:54.451Z,1.60
2022-09-09T05:17:21.217Z,1.70
2022-09-09T05:19:47.919Z,1.70
2022-09-09T05:22:14.576Z,1.93
2022-09-09T05:24:41.149Z,1.97
2022-09-09T05:27:07.749Z,1.90
2022-09-09T05:29:37.158Z,1.50
2022-09-09T05:32:04.426Z,1.57
2022-09-09T05:34:30.993Z,1.70
2022-09-09T05:36:57.568Z,1.83
2022-09-09T05:39:24.273Z,1.60
2022-09-09T05:41:51.028Z,1.70
2022-09-09T05:44:17.644Z,1.57
2022-09-09T05:46:44.259Z,2.03
2022-09-09T05:49:11.391Z,1.97
2022-09-09T05:51:38.633Z,1.90
2022-09-09T05:54:05.341Z,1.50
2022-09-09T05:56:33.494Z,2.07
2022-09-09T05:59:01.262Z,1.87
2022-09-09T06:01:36.079Z,2.50
2022-09-09T06:04:03.447Z,2.00
2022-09-09T06:06:37.929Z,2.03
2022-09-09T06:09:07.665Z,1.70
2022-09-09T06:11:37.163Z,2.03
2022-09-09T06:14:04.135Z,1.90
2022-09-09T06:16:31.501Z,1.77
2022-09-09T06:18:58.953Z,1.83
2022-09-09T06:21:31.335Z,1.83
2022-09-09T06:24:01.106Z,1.90
2022-09-09T06:26:33.819Z,1.90
2022-09-09T06:29:01.371Z,1.87
2022-09-09T06:31:31.687Z,2.20
2022-09-09T06:33:59.796Z,1.80
2022-09-09T06:36:27.633Z,1.90
2022-09-09T06:38:54.460Z,2.20
2022-09-09T06:41:24.513Z,1.83
2022-09-09T06:43:51.072Z,1.90
2022-09-09T06:46:23.538Z,2.13
2022-09-09T06:48:50.436Z,1.93
2022-09-09T06:51:18.657Z,2.03
2022-09-09T06:53:46.825Z,1.90
2022-09-09T06:56:22.635Z,1.87
2022-09-09T06:58:49.945Z,1.90
2022-09-09T07:01:36.336Z,1.80
2022-09-09T07:04:05.387Z,2.20
2022-09-09T07:06:33.520Z,1.70
2022-09-09T07:09:02.728Z,1.70
2022-09-09T07:11:32.151Z,1.83
2022-09-09T07:14:00.118Z,1.53
2022-09-09T07:16:28.492Z,1.50
2022-09-09T07:18:58.943Z,2.10
2022-09-09T07:21:30.487Z,1.33
2022-09-09T07:23:57.814Z,1.60
2022-09-09T07:26:26.868Z,1.50
2022-09-09T07:28:54.632Z,1.53
2022-09-09T07:31:27.398Z,1.40
2022-09-09T07:33:54.661Z,1.87
2022-09-09T07:36:32.495Z,1.70
2022-09-09T07:39:03.346Z,1.50
2022-09-09T07:41:33.809Z,1.73
2022-09-09T07:44:00.410Z,1.57
2022-09-09T07:46:27.885Z,2.00
2022-09-09T07:48:56.805Z,1.70
2022-09-09T07:51:30.519Z,2.20
2022-09-09T07:53:59.455Z,2.70
2022-09-09T07:56:27.581Z,2.47
2022-09-09T07:58:55.792Z,2.40
2022-09-09T08:01:26.408Z,2.60
2022-09-09T08:03:57.334Z,2.10
2022-09-09T08:06:24.800Z,2.47
2022-09-09T08:08:52.457Z,2.43
2022-09-09T08:11:19.147Z,1.93
2022-09-09T08:13:47.418Z,2.07
2022-09-09T08:16:18.305Z,1.67
2022-09-09T08:18:45.828Z,2.20
2022-09-09T08:21:15.265Z,1.70
2022-09-09T08:23:43.250Z,1.50
2022-09-09T08:26:15.858Z,1.50
2022-09-09T08:28:43.451Z,1.67
2022-09-09T08:31:15.861Z,1.57
2022-09-09T08:33:44.019Z,1.50
2022-09-09T08:36:12.482Z,1.60
2022-09-09T08:38:39.260Z,1.60
2022-09-09T08:41:22.417Z,1.50
2022-09-09T08:43:51.648Z,1.33
2022-09-09T08:46:28.317Z,1.53
2022-09-09T08:49:03.412Z,1.40
2022-09-09T08:51:32.181Z,1.50
2022-09-09T08:54:01.714Z,1.57
2022-09-09T08:56:29.619Z,1.90
2022-09-09T08:58:58.341Z,1.70
2022-09-09T09:01:34.205Z,1.30
2022-09-09T09:04:06.825Z,1.40
2022-09-09T09:06:42.412Z,1.40
2022-09-09T09:09:14.875Z,1.57
2022-09-09T09:11:53.377Z,1.53
2022-09-09T09:14:25.010Z,1.70
2022-09-09T09:17:07.418Z,2.47
2022-09-09T09:19:35.894Z,4.30
2022-09-09T09:22:16.429Z,3.80
2022-09-09T09:24:56.284Z,4.20
2022-09-09T09:27:37.886Z,2.80
2022-09-09T09:30:28.978Z,2.30
2022-09-09T09:33:10.047Z,2.10
2022-09-09T09:35:41.602Z,1.90
2022-09-09T09:41:07.896Z,1.60
2022-09-09T09:43:36.922Z,2.03
2022-09-09T09:46:24.944Z,1.53
2022-09-09T09:49:06.784Z,2.70
2022-09-09T09:51:34.323Z,2.00
2022-09-09T09:54:26.947Z,2.13
2022-09-09T09:56:53.939Z,2.90
2022-09-09T09:59:39.137Z,1.80
2022-09-09T10:02:18.977Z,1.90
2022-09-09T10:04:49.011Z,2.37
2022-09-09T10:07:21.573Z,2.20
2022-09-09T10:09:55.070Z,1.80
2022-09-09T10:12:46.288Z,2.27
2022-09-09T10:15:37.985Z,1.80
2022-09-09T10:18:08.235Z,1.43
2022-09-09T10:21:01.501Z,1.20
2022-09-09T10:23:52.524Z,1.20
2022-09-09T10:26:31.308Z,1.60
2022-09-09T10:29:45.042Z,1.70
2022-09-09T10:32:34.158Z,1.70
2022-09-09T10:35:32.086Z,1.30
2022-09-09T10:38:18.761Z,1.80
2022-09-09T10:41:08.595Z,1.67
2022-09-09T10:43:49.244Z,1.33
2022-09-09T10:47:01.827Z,1.67
2022-09-09T10:49:47.159Z,2.10
2022-09-09T10:52:36.789Z,2.20
2022-09-09T10:55:15.795Z,2.10
2022-09-09T10:57:50.034Z,2.20
2022-09-09T11:00:24.857Z,2.23
2022-09-09T11:02:57.063Z,1.80
2022-09-09T11:05:26.748Z,1.90
2022-09-09T11:07:58.623Z,1.60
2022-09-09T11:10:49.915Z,1.67
2022-09-09T11:13:28.071Z,1.50
2022-09-09T11:16:16.809Z,1.60
2022-09-09T11:18:44.636Z,1.50
2022-09-09T11:21:18.685Z,1.93
2022-09-09T11:23:50.166Z,2.03
2022-09-09T11:26:22.545Z,1.80
2022-09-09T11:29:04.066Z,1.87
2022-09-09T11:31:45.543Z,2.00
2022-09-09T11:34:24.381Z,2.07
2022-09-09T11:37:28.642Z,2.13
2022-09-09T11:40:15.659Z,1.40
2022-09-09T11:42:43.156Z,1.50
2022-09-09T11:45:31.348Z,1.60
2022-09-09T11:48:00.078Z,1.33
2022-09-09T11:50:26.616Z,1.70
2022-09-09T11:53:23.983Z,1.40
2022-09-09T11:56:13.208Z,1.30
2022-09-09T11:58:46.787Z,1.40
2022-09-09T12:01:17.847Z,1.30
2022-09-09T12:03:53.920Z,1.20
2022-09-09T12:06:27.749Z,1.60
2022-09-09T12:09:06.197Z,1.77
2022-09-09T12:11:33.113Z,1.97
2022-09-09T12:14:04.060Z,1.47
2022-09-09T12:16:35.806Z,1.70
2022-09-09T12:19:17.397Z,1.83
2022-09-09T12:22:23.156Z,1.80
2022-09-09T12:25:04.664Z,1.23
2022-09-09T12:27:44.170Z,1.10
2022-09-09T12:30:14.428Z,1.20
2022-09-09T12:32:41.541Z,1.10
2022-09-09T12:35:27.552Z,1.40
2022-09-09T12:38:00.104Z,1.10
2022-09-09T12:40:33.425Z,1.10
2022-09-09T12:43:01.227Z,1.20
2022-09-09T12:45:31.296Z,1.27
2022-09-09T12:47:59.068Z,1.10
2022-09-09T12:50:29.039Z,1.30
2022-09-09T12:52:59.524Z,1.27
2022-09-09T12:55:31.219Z,1.30
2022-09-09T12:58:00.473Z,1.40
2022-09-09T13:00:28.018Z,1.50
2022-09-09T13:02:57.242Z,1.43
2022-09-09T13:05:38.607Z,1.30
2022-09-09T13:08:08.470Z,1.70
2022-09-09T13:10:54.543Z,1.40
2022-09-09T13:13:25.359Z,1.67
2022-09-09T13:15:54.347Z,1.70
2022-09-09T13:18:28.515Z,1.70
2022-09-09T13:20:55.268Z,1.60
2022-09-09T13:23:22.355Z,1.43
2022-09-09T13:26:00.706Z,1.40
2022-09-09T13:28:33.985Z,1.70
2022-09-09T13:31:03.781Z,1.50
2022-09-09T13:33:39.064Z,1.60
2022-09-09T13:36:08.319Z,1.60
2022-09-09T13:38:40.424Z,1.80
2022-09-09T13:41:11.584Z,1.60
2022-09-09T13:43:42.334Z,1.40
2022-09-09T13:46:41.795Z,1.40
2022-09-09T13:49:09.918Z,1.60
2022-09-09T13:51:55.011Z,1.50
2022-09-09T13:54:22.169Z,1.43
2022-09-09T13:56:51.033Z,1.50
2022-09-09T13:59:30.754Z,1.97
2022-09-09T14:02:09.389Z,1.80
2022-09-09T14:04:36.215Z,1.77
2022-09-09T14:07:03.349Z,2.30
2022-09-09T14:09:29.932Z,2.43
2022-09-09T14:11:56.551Z,2.67
2022-09-09T14:14:23.146Z,2.77
2022-09-09T14:16:49.769Z,2.67
2022-09-09T14:19:16.434Z,1.90
2022-09-09T14:21:46.073Z,1.53
2022-09-09T14:24:13.410Z,1.57
2022-09-09T14:26:40.068Z,1.53
2022-09-09T14:29:06.919Z,1.30
2022-09-09T14:31:33.863Z,1.33
2022-09-09T14:34:00.577Z,1.60
2022-09-09T14:36:27.253Z,1.20
2022-09-09T14:38:53.971Z,0.90
2022-09-09T14:41:21.761Z,0.70
2022-09-09T14:43:48.356Z,1.10
2022-09-09T14:46:17.466Z,1.00
2022-09-09T14:48:46.295Z,0.50
2022-09-09T14:51:16.802Z,0.90
2022-09-09T14:53:44.503Z,1.00
2022-09-09T14:56:14.749Z,1.10
2022-09-09T14:58:41.720Z,0.90
2022-09-09T15:01:19.132Z,0.77
2022-09-09T15:04:05.491Z,0.90
2022-09-09T15:06:34.593Z,0.90
2022-09-09T15:09:01.564Z,0.87
2022-09-09T15:11:31.548Z,0.80
2022-09-09T15:13:59.219Z,1.37
2022-09-09T15:16:28.194Z,1.03
2022-09-09T15:18:57.697Z,1.40
2022-09-09T15:21:26.381Z,0.80
2022-09-09T15:23:53.489Z,1.37
2022-09-09T15:26:21.668Z,1.43
2022-09-09T15:28:49.152Z,1.90
2022-09-09T15:31:20.378Z,2.47
2022-09-09T15:34:04.065Z,2.30
2022-09-09T15:36:35.584Z,2.40
2022-09-09T15:39:03.429Z,2.20
2022-09-09T15:41:32.603Z,1.87
2022-09-09T15:44:02.753Z,1.90
2022-09-09T15:46:38.481Z,1.47
2022-09-09T15:49:13.991Z,1.00
2022-09-09T15:51:45.862Z,1.10
2022-09-09T15:54:14.961Z,1.30
2022-09-09T15:56:41.914Z,1.03
2022-09-09T15:59:08.948Z,1.20
2022-09-09T16:01:36.583Z,1.30
2022-09-09T16:04:03.513Z,1.50
2022-09-09T16:06:30.912Z,1.33
2022-09-09T16:08:59.056Z,1.10
2022-09-09T16:11:32.067Z,1.30
2022-09-09T16:13:59.596Z,1.10
2022-09-09T16:16:30.003Z,1.40
2022-09-09T16:18:59.282Z,1.43
2022-09-09T16:21:38.749Z,1.23
2022-09-09T16:24:08.633Z,1.27
2022-09-09T16:26:36.693Z,1.10
2022-09-09T16:29:04.070Z,1.13
2022-09-09T16:31:33.049Z,1.43
2022-09-09T16:34:00.077Z,1.50
2022-09-09T16:36:29.000Z,1.20
2022-09-09T16:38:58.540Z,1.50
2022-09-09T16:41:26.617Z,1.60
2022-09-09T16:44:01.103Z,1.60
2022-09-09T16:46:29.096Z,1.70
2022-09-09T16:48:59.433Z,1.60
2022-09-09T16:51:30.532Z,1.60
2022-09-09T16:53:59.556Z,1.73
2022-09-09T16:56:27.991Z,1.90
2022-09-09T16:58:56.932Z,1.90
2022-09-09T17:01:29.162Z,2.10
2022-09-09T17:04:04.323Z,2.00
2022-09-09T17:06:31.860Z,1.90
2022-09-09T17:09:00.117Z,1.80
2022-09-09T17:11:27.279Z,1.93
2022-09-09T17:13:55.675Z,2.00
2022-09-09T17:16:23.938Z,2.00
2022-09-09T17:18:51.625Z,1.90
2022-09-09T17:21:20.499Z,2.13
2022-09-09T17:23:50.500Z,2.13
2022-09-09T17:26:20.179Z,1.93
2022-09-09T17:28:47.112Z,2.27
2022-09-09T17:31:16.201Z,1.80
2022-09-09T17:33:45.145Z,1.90
2022-09-09T17:36:21.168Z,2.00
2022-09-09T17:38:47.984Z,1.70
2022-09-09T17:41:17.667Z,1.83
2022-09-09T17:43:45.243Z,1.97
2022-09-09T17:46:23.461Z,2.00
2022-09-09T17:48:51.810Z,1.90
2022-09-09T17:51:21.419Z,1.93
2022-09-09T17:53:50.350Z,1.87
2022-09-09T17:56:23.951Z,1.60
2022-09-09T17:58:51.183Z,2.10
2022-09-09T18:01:28.028Z,2.13
2022-09-09T18:03:57.532Z,2.00
2022-09-09T18:06:30.937Z,2.40
2022-09-09T18:08:59.764Z,1.90
2022-09-09T18:11:28.855Z,2.00
2022-09-09T18:14:00.554Z,2.00
2022-09-09T18:16:28.894Z,1.90
2022-09-09T18:18:58.411Z,2.63
2022-09-09T18:21:27.687Z,1.90
2022-09-09T18:23:54.412Z,1.90
2022-09-09T18:26:24.440Z,2.00
2022-09-09T18:28:55.499Z,2.50
2022-09-09T18:31:24.201Z,2.10
2022-09-09T18:33:53.351Z,2.40
2022-09-09T18:36:29.029Z,2.03
2022-09-09T18:38:57.662Z,2.23
2022-09-09T18:41:33.569Z,2.37
2022-09-09T18:44:02.801Z,2.63
2022-09-09T18:46:31.294Z,2.63
2022-09-09T18:48:58.151Z,2.90
2022-09-09T18:51:26.984Z,2.70
2022-09-09T18:53:56.903Z,2.30
2022-09-09T18:56:23.681Z,2.57
2022-09-09T18:58:55.808Z,2.43
2022-09-09T19:01:23.027Z,2.37
2022-09-09T19:03:49.725Z,2.20
2022-09-09T19:06:18.764Z,2.37
2022-09-09T19:08:46.701Z,2.40
2022-09-09T19:11:19.265Z,2.40
2022-09-09T19:13:59.824Z,2.10
2022-09-09T19:16:29.390Z,2.20
2022-09-09T19:19:01.066Z,2.10
2022-09-09T19:21:30.168Z,1.93
2022-09-09T19:24:08.702Z,1.50
2022-09-09T19:26:40.635Z,1.40
2022-09-09T19:29:15.309Z,1.60
2022-09-09T19:32:09.480Z,1.60
2022-09-09T19:34:32.344Z,1.40
2022-09-09T19:36:59.010Z,1.70
2022-09-09T19:39:25.759Z,1.60
2022-09-09T19:41:52.450Z,1.53
2022-09-09T19:44:19.101Z,1.73
2022-09-09T19:46:47.358Z,1.80
2022-09-09T19:49:15.661Z,1.80
2022-09-09T19:51:43.404Z,1.63
2022-09-09T19:54:12.596Z,1.60
2022-09-09T19:56:40.375Z,1.70
2022-09-09T19:59:08.535Z,2.10
2022-09-09T20:01:40.187Z,1.80
2022-09-09T20:04:07.998Z,1.90
2022-09-09T20:06:39.657Z,1.90
2022-09-09T20:09:08.131Z,1.90
2022-09-09T20:11:34.793Z,2.10
2022-09-09T20:14:01.652Z,2.20
2022-09-09T20:16:30.655Z,2.20
2022-09-09T20:19:04.690Z,2.30
2022-09-09T20:21:36.147Z,2.70
2022-09-09T20:24:06.011Z,2.17
2022-09-09T20:26:37.695Z,3.00
2022-09-09T20:29:07.783Z,2.70
2022-09-09T20:31:37.117Z,2.70
2022-09-09T20:34:04.470Z,2.53
2022-09-09T20:36:33.868Z,2.73
2022-09-09T20:39:01.828Z,2.77
2022-09-09T20:41:31.427Z,2.90
2022-09-09T20:44:01.591Z,2.40
2022-09-09T20:46:33.903Z,2.10
2022-09-09T20:49:03.225Z,1.80
2022-09-09T20:51:33.209Z,2.07
2022-09-09T20:54:07.579Z,1.97
2022-09-09T20:56:39.415Z,1.70
2022-09-09T20:59:07.023Z,1.83
2022-09-09T21:01:33.933Z,1.93
2022-09-09T21:04:00.549Z,2.13
2022-09-09T21:06:27.263Z,2.33
2022-09-09T21:08:53.992Z,3.00
2022-09-09T21:11:20.813Z,2.70
2022-09-09T21:13:47.494Z,2.77
2022-09-09T21:16:16.766Z,2.10
2022-09-09T21:18:44.473Z,2.07
2022-09-09T21:21:11.483Z,2.27
2022-09-09T21:23:38.127Z,2.87
2022-09-09T21:26:05.201Z,2.63
2022-09-09T21:28:31.809Z,2.40
2022-09-09T21:30:58.496Z,2.83
2022-09-09T21:33:28.272Z,2.97
2022-09-09T21:36:06.289Z,2.90
2022-09-09T21:38:34.017Z,3.10
2022-09-09T21:41:09.418Z,2.70
2022-09-09T21:43:36.098Z,2.93
2022-09-09T21:46:10.507Z,3.37
2022-09-09T21:48:37.259Z,3.17
2022-09-09T21:51:06.137Z,3.40
2022-09-09T21:53:33.444Z,3.17
2022-09-09T21:56:07.065Z,3.20
2022-09-09T21:58:37.120Z,3.20
2022-09-09T22:01:16.418Z,3.20
2022-09-09T22:03:43.867Z,3.20
2022-09-09T22:06:13.111Z,2.90
2022-09-09T22:08:40.244Z,2.77
2022-09-09T22:11:09.018Z,2.50
2022-09-09T22:13:36.871Z,2.70
2022-09-09T22:16:05.628Z,2.80
2022-09-09T22:18:32.465Z,2.70
2022-09-09T22:21:02.466Z,2.60
2022-09-09T22:23:32.196Z,2.77
2022-09-09T22:25:58.869Z,2.53
2022-09-09T22:28:25.503Z,2.93
2022-09-09T22:30:52.133Z,2.73
2022-09-09T22:33:19.918Z,2.73
2022-09-09T22:35:46.534Z,2.60
2022-09-09T22:38:13.471Z,2.30
2022-09-09T22:40:41.166Z,2.73
2022-09-09T22:43:14.273Z,2.47
2022-09-09T22:45:41.784Z,2.20
2022-09-09T22:48:08.354Z,2.23
2022-09-09T22:50:40.111Z,2.13
2022-09-09T22:53:10.575Z,2.20
2022-09-09T22:55:37.376Z,2.03
2022-09-09T22:58:04.002Z,2.07
2022-09-09T23:00:30.690Z,2.50
2022-09-09T23:02:57.273Z,2.60
2022-09-09T23:05:25.537Z,3.03
2022-09-09T23:07:58.641Z,2.63
2022-09-09T23:10:27.209Z,2.20
2022-09-09T23:12:54.268Z,2.60
2022-09-09T23:15:21.022Z,2.30
2022-09-09T23:17:47.643Z,2.80
2022-09-09T23:20:14.273Z,2.47
2022-09-09T23:22:41.146Z,2.70
2022-09-09T23:25:08.250Z,2.70
2022-09-09T23:27:37.428Z,2.77
2022-09-09T23:30:10.004Z,2.70
2022-09-09T23:32:37.267Z,2.70
2022-09-09T23:35:05.159Z,2.43
2022-09-09T23:37:31.963Z,3.33
2022-09-09T23:39:58.627Z,3.03
2022-09-09T23:42:25.960Z,2.93
2022-09-09T23:44:52.691Z,3.00
2022-09-09T23:47:19.289Z,2.90
2022-09-09T23:49:48.919Z,2.27
2022-09-09T23:52:18.376Z,1.97
2022-09-09T23:54:44.928Z,1.97
2022-09-09T23:57:13.711Z,1.70
2022-09-09T23:59:40.431Z,1.33
